createdAt,value
2022-09-11T00:01:27.170Z,7.28
2022-09-11T00:03:56.386Z,8.32
2022-09-11T00:06:30.619Z,8.45
2022-09-11T00:09:02.041Z,7.65
2022-09-11T00:11:31.773Z,9.13
2022-09-11T00:13:59.856Z,9.02
2022-09-11T00:16:29.799Z,9.70
2022-09-11T00:19:01.177Z,10.48
2022-09-11T00:21:30.536Z,11.63
2022-09-11T00:23:58.636Z,11.50
2022-09-11T00:26:26.985Z,12.98
2022-09-11T00:28:55.492Z,11.48
2022-09-11T00:31:25.603Z,11.20
2022-09-11T00:33:53.915Z,11.52
2022-09-11T00:36:24.337Z,11.00
2022-09-11T00:38:54.634Z,13.00
2022-09-11T00:41:25.631Z,11.50
2022-09-11T00:44:00.185Z,12.95
2022-09-11T00:46:34.342Z,12.40
2022-09-11T00:49:07.632Z,14.52
2022-09-11T00:51:37.757Z,11.52
2022-09-11T00:54:07.269Z,12.82
2022-09-11T00:56:38.203Z,13.82
2022-09-11T00:59:07.737Z,13.43
2022-09-11T01:01:37.277Z,13.80
2022-09-11T01:04:07.411Z,13.88
2022-09-11T01:06:35.540Z,14.60
2022-09-11T01:09:03.758Z,15.15
2022-09-11T01:11:48.156Z,13.18
2022-09-11T01:14:30.264Z,16.45
2022-09-11T01:17:15.208Z,17.52
2022-09-11T01:20:09.999Z,16.88
2022-09-11T01:23:03.369Z,17.25
2022-09-11T01:25:50.756Z,15.48
2022-09-11T01:28:24.216Z,15.60
2022-09-11T01:30:56.225Z,18.10
2022-09-11T01:33:29.135Z,16.42
2022-09-11T01:36:03.731Z,17.88
2022-09-11T01:38:37.688Z,16.67
2022-09-11T01:41:11.399Z,12.77
2022-09-11T01:43:44.451Z,14.07
2022-09-11T01:46:14.366Z,16.65
2022-09-11T01:48:48.552Z,15.60
2022-09-11T01:51:23.251Z,16.23
2022-09-11T01:53:53.734Z,17.38
2022-09-11T01:56:25.670Z,14.77
2022-09-11T01:59:00.769Z,16.48
2022-09-11T02:01:32.944Z,18.67
2022-09-11T02:04:08.293Z,15.38
2022-09-11T02:06:43.582Z,15.90
2022-09-11T02:09:15.546Z,15.75
2022-09-11T02:11:46.633Z,14.70
2022-09-11T02:14:20.812Z,16.70
2022-09-11T02:16:52.517Z,17.25
2022-09-11T02:19:24.359Z,17.23
2022-09-11T02:21:52.312Z,17.08
2022-09-11T02:24:22.669Z,18.48
2022-09-11T02:26:53.808Z,17.95
2022-09-11T02:29:24.354Z,16.30
2022-09-11T02:31:53.086Z,20.27
2022-09-11T02:34:27.053Z,17.67
2022-09-11T02:37:09.216Z,17.90
2022-09-11T02:40:00.216Z,17.17
2022-09-11T02:42:40.625Z,17.60
2022-09-11T02:45:23.654Z,18.17
2022-09-11T02:48:01.057Z,15.45
2022-09-11T02:50:34.949Z,17.58
2022-09-11T02:53:08.341Z,17.33
2022-09-11T02:55:49.862Z,16.00
2022-09-11T02:58:22.905Z,15.77
2022-09-11T03:00:54.424Z,15.95
2022-09-11T03:03:22.391Z,16.98
2022-09-11T03:05:50.291Z,17.88
2022-09-11T03:08:18.874Z,16.40
2022-09-11T03:10:49.910Z,16.75
2022-09-11T03:13:18.320Z,16.67
2022-09-11T03:15:47.503Z,15.75
2022-09-11T03:18:16.907Z,17.55
2022-09-11T03:20:46.905Z,15.80
2022-09-11T03:23:14.944Z,18.40
2022-09-11T03:25:42.861Z,15.82
2022-09-11T03:28:11.914Z,17.58
2022-09-11T03:30:41.409Z,15.95
2022-09-11T03:33:09.496Z,18.58
2022-09-11T03:35:39.433Z,17.15
2022-09-11T03:38:07.312Z,19.55
2022-09-11T03:40:35.500Z,19.50
2022-09-11T03:43:03.858Z,16.27
2022-09-11T03:45:32.172Z,16.90
2022-09-11T03:48:01.162Z,20.40
2022-09-11T03:50:29.066Z,17.45
2022-09-11T03:52:59.334Z,21.40
2022-09-11T03:55:28.612Z,18.50
2022-09-11T03:57:56.534Z,16.40
2022-09-11T04:00:26.177Z,17.38
2022-09-11T04:02:57.473Z,18.77
2022-09-11T04:05:44.115Z,17.90
2022-09-11T04:08:14.620Z,18.67
2022-09-11T04:10:45.589Z,17.25
2022-09-11T04:13:13.550Z,18.85
2022-09-11T04:15:42.606Z,18.88
2022-09-11T04:18:10.534Z,19.52
2022-09-11T04:20:40.359Z,18.25
2022-09-11T04:23:09.082Z,17.88
2022-09-11T04:25:38.915Z,19.90
2022-09-11T04:28:07.069Z,17.58
2022-09-11T04:30:38.568Z,20.08
2022-09-11T04:33:06.582Z,18.52
2022-09-11T04:35:37.567Z,17.38
2022-09-11T04:38:06.810Z,19.80
2022-09-11T04:40:37.786Z,16.58
2022-09-11T04:43:06.372Z,17.60
2022-09-11T04:45:36.583Z,17.35
2022-09-11T04:48:05.919Z,19.30
2022-09-11T04:50:33.952Z,18.02
2022-09-11T04:53:13.814Z,15.38
2022-09-11T04:55:45.306Z,21.27
2022-09-11T04:58:14.711Z,19.25
2022-09-11T05:00:42.769Z,21.02
2022-09-11T05:03:11.205Z,18.33
2022-09-11T05:05:39.111Z,21.48
2022-09-11T05:08:08.598Z,22.15
2022-09-11T05:10:38.396Z,20.27
2022-09-11T05:13:08.614Z,19.70
2022-09-11T05:15:36.539Z,20.00
2022-09-11T05:18:04.902Z,19.08
2022-09-11T05:20:33.253Z,19.27
2022-09-11T05:23:03.243Z,18.63
2022-09-11T05:25:32.821Z,18.48
2022-09-11T05:28:00.733Z,19.40
2022-09-11T05:30:31.178Z,18.92
2022-09-11T05:32:59.333Z,16.95
2022-09-11T05:35:32.143Z,21.05
2022-09-11T05:38:00.563Z,20.05
2022-09-11T05:40:28.588Z,17.50
2022-09-11T05:42:56.518Z,19.63
2022-09-11T05:45:25.579Z,24.13
2022-09-11T05:47:56.046Z,18.98
2022-09-11T05:50:24.265Z,22.80
2022-09-11T05:52:52.375Z,23.35
2022-09-11T05:55:20.361Z,18.52
2022-09-11T05:57:48.408Z,21.92
2022-09-11T06:00:16.745Z,25.58
2022-09-11T06:02:50.959Z,22.52
2022-09-11T06:05:20.824Z,24.15
2022-09-11T06:07:50.993Z,24.23
2022-09-11T06:10:19.757Z,28.70
2022-09-11T06:12:47.721Z,23.83
2022-09-11T06:15:36.262Z,27.98
2022-09-11T06:18:06.598Z,21.10
2022-09-11T06:20:35.861Z,22.20
2022-09-11T06:23:07.340Z,24.20
2022-09-11T06:25:37.630Z,24.02
2022-09-11T06:28:05.708Z,24.08
2022-09-11T06:30:34.514Z,22.02
2022-09-11T06:33:02.443Z,23.33
2022-09-11T06:35:30.382Z,24.75
2022-09-11T06:38:01.014Z,27.60
2022-09-11T06:40:29.003Z,23.38
2022-09-11T06:42:57.005Z,26.80
2022-09-11T06:45:26.594Z,30.42
2022-09-11T06:47:54.593Z,27.15
2022-09-11T06:50:23.427Z,31.40
2022-09-11T06:53:04.034Z,26.90
2022-09-11T06:55:32.286Z,31.80
2022-09-11T06:58:06.960Z,29.70
2022-09-11T07:00:36.104Z,27.60
2022-09-11T07:03:05.413Z,29.98
2022-09-11T07:05:33.653Z,29.73
2022-09-11T07:08:05.644Z,30.85
2022-09-11T07:10:36.738Z,31.60
2022-09-11T07:13:04.820Z,31.35
2022-09-11T07:15:33.153Z,32.65
2022-09-11T07:18:02.922Z,32.03
2022-09-11T07:20:31.787Z,32.47
2022-09-11T07:23:00.003Z,32.17
2022-09-11T07:25:31.651Z,26.80
2022-09-11T07:27:59.759Z,29.38
2022-09-11T07:30:28.048Z,26.05
2022-09-11T07:32:57.392Z,27.92
2022-09-11T07:35:25.506Z,28.85
2022-09-11T07:37:54.854Z,31.65
2022-09-11T07:40:26.757Z,27.58
2022-09-11T07:42:56.121Z,28.25
2022-09-11T07:45:24.619Z,32.10
2022-09-11T07:47:53.729Z,29.35
2022-09-11T07:50:24.166Z,32.03
2022-09-11T07:52:52.166Z,28.23
2022-09-11T07:55:21.408Z,28.75
2022-09-11T07:57:51.936Z,28.95
2022-09-11T08:00:21.542Z,27.10
2022-09-11T08:02:49.734Z,30.25
2022-09-11T08:05:26.657Z,28.20
2022-09-11T08:07:54.994Z,29.85
2022-09-11T08:10:27.599Z,25.85
2022-09-11T08:12:59.584Z,26.45
2022-09-11T08:15:32.409Z,26.88
2022-09-11T08:18:02.051Z,26.02
2022-09-11T08:20:31.522Z,23.27
2022-09-11T08:22:59.413Z,21.88
2022-09-11T08:25:28.517Z,25.30
2022-09-11T08:27:56.631Z,24.33
2022-09-11T08:30:25.494Z,23.17
2022-09-11T08:32:54.967Z,25.85
2022-09-11T08:35:22.945Z,24.13
2022-09-11T08:37:54.864Z,18.17
2022-09-11T08:40:23.476Z,20.08
2022-09-11T08:42:52.967Z,23.30
2022-09-11T08:45:23.913Z,18.35
2022-09-11T08:47:56.798Z,23.55
2022-09-11T08:50:27.898Z,20.65
2022-09-11T08:52:57.839Z,21.85
2022-09-11T08:55:39.372Z,22.08
2022-09-11T08:58:20.924Z,23.13
2022-09-11T09:00:55.651Z,22.50
2022-09-11T09:03:46.027Z,23.52
2022-09-11T09:06:26.822Z,24.60
2022-09-11T09:09:04.554Z,23.95
2022-09-11T09:11:39.464Z,30.00
2022-09-11T09:14:29.141Z,25.33
2022-09-11T09:17:03.000Z,25.30
2022-09-11T09:19:41.209Z,24.65
2022-09-11T09:22:18.564Z,27.60
2022-09-11T09:24:50.178Z,26.77
2022-09-11T09:27:22.377Z,27.85
2022-09-11T09:29:55.588Z,23.73
2022-09-11T09:32:30.934Z,27.17
2022-09-11T09:35:06.040Z,27.52
2022-09-11T09:37:35.065Z,26.10
2022-09-11T09:40:06.878Z,25.38
2022-09-11T09:43:01.037Z,26.10
2022-09-11T09:45:39.881Z,24.25
2022-09-11T09:48:11.609Z,26.45
2022-09-11T09:50:43.853Z,27.45
2022-09-11T09:53:18.254Z,25.67
2022-09-11T09:55:47.431Z,26.02
2022-09-11T09:58:15.802Z,23.25
2022-09-11T10:00:43.908Z,25.67
2022-09-11T10:03:23.383Z,24.83
2022-09-11T10:05:54.489Z,24.23
2022-09-11T10:08:29.225Z,21.80
2022-09-11T10:10:58.557Z,22.73
2022-09-11T10:13:28.531Z,23.08
2022-09-11T10:15:59.521Z,20.90
2022-09-11T10:18:42.671Z,24.02
2022-09-11T10:21:29.515Z,24.25
2022-09-11T10:23:59.758Z,23.25
2022-09-11T10:26:32.156Z,20.42
2022-09-11T10:29:05.800Z,19.95
2022-09-11T10:31:33.954Z,20.35
2022-09-11T10:34:02.179Z,24.17
2022-09-11T10:36:31.649Z,29.27
2022-09-11T10:39:01.686Z,27.70
2022-09-11T10:41:34.104Z,26.20
2022-09-11T10:44:04.181Z,20.67
2022-09-11T10:46:41.110Z,24.13
2022-09-11T10:49:17.747Z,24.67
2022-09-11T10:52:01.811Z,21.20
2022-09-11T10:54:46.341Z,22.00
2022-09-11T10:57:19.600Z,17.98
2022-09-11T11:00:04.793Z,20.75
2022-09-11T11:02:35.247Z,18.30
2022-09-11T11:05:07.308Z,21.60
2022-09-11T11:08:02.102Z,18.65
2022-09-11T11:10:41.482Z,17.17
2022-09-11T11:13:25.025Z,13.32
2022-09-11T11:16:05.071Z,14.80
2022-09-11T11:18:49.448Z,17.35
2022-09-11T11:21:29.677Z,19.63
2022-09-11T11:24:09.956Z,19.83
2022-09-11T11:26:47.358Z,17.05
2022-09-11T11:29:42.981Z,20.10
2022-09-11T11:32:20.057Z,18.15
2022-09-11T11:35:05.744Z,19.92
2022-09-11T11:37:36.782Z,14.38
2022-09-11T11:40:14.256Z,15.18
2022-09-11T11:42:49.897Z,15.40
2022-09-11T11:45:24.606Z,15.68
2022-09-11T11:47:55.405Z,14.65
2022-09-11T11:50:31.868Z,15.80
2022-09-11T11:53:07.179Z,15.73
2022-09-11T11:55:44.354Z,15.25
2022-09-11T11:58:17.249Z,13.77
2022-09-11T12:00:55.252Z,14.82
2022-09-11T12:03:28.972Z,15.30
2022-09-11T12:05:56.930Z,20.92
2022-09-11T12:08:25.082Z,15.63
2022-09-11T12:11:01.610Z,16.15
2022-09-11T12:13:33.276Z,17.42
2022-09-11T12:16:27.820Z,15.07
2022-09-11T12:19:05.774Z,13.40
2022-09-11T12:21:42.488Z,16.98
2022-09-11T12:24:19.793Z,13.82
2022-09-11T12:27:11.819Z,11.40
2022-09-11T12:29:54.158Z,12.18
2022-09-11T12:32:28.990Z,11.38
2022-09-11T12:35:01.967Z,11.30
2022-09-11T12:37:37.711Z,9.77
2022-09-11T12:40:16.764Z,10.52
2022-09-11T12:42:58.348Z,11.23
2022-09-11T12:45:36.093Z,11.80
2022-09-11T12:48:07.359Z,12.10
2022-09-11T12:50:35.950Z,11.98
2022-09-11T12:53:04.816Z,11.63
2022-09-11T12:55:39.566Z,11.32
2022-09-11T12:58:25.827Z,9.70
2022-09-11T13:01:05.501Z,8.57
2022-09-11T13:03:34.888Z,11.63
2022-09-11T13:06:06.700Z,10.63
2022-09-11T13:08:40.904Z,12.02
2022-09-11T13:11:38.141Z,10.48
2022-09-11T13:14:47.893Z,9.98
2022-09-11T13:17:30.084Z,10.32
2022-09-11T13:20:20.392Z,10.25
2022-09-11T13:22:48.968Z,13.65
2022-09-11T13:25:19.242Z,13.45
2022-09-11T13:27:50.663Z,13.00
2022-09-11T13:30:22.584Z,12.50
2022-09-11T13:33:01.587Z,13.32
2022-09-11T13:35:30.786Z,12.55
2022-09-11T13:38:02.536Z,11.18
2022-09-11T13:40:37.997Z,14.50
2022-09-11T13:43:06.110Z,12.70
2022-09-11T13:45:35.658Z,12.68
2022-09-11T13:48:14.082Z,14.88
2022-09-11T13:50:42.213Z,13.77
2022-09-11T13:53:10.604Z,13.95
2022-09-11T13:55:38.693Z,10.32
2022-09-11T13:58:23.970Z,10.43
2022-09-11T14:00:54.907Z,11.00
2022-09-11T14:03:27.862Z,8.73
2022-09-11T14:05:58.367Z,9.93
2022-09-11T14:08:35.668Z,11.05
2022-09-11T14:11:10.438Z,8.77
2022-09-11T14:13:48.232Z,9.80
2022-09-11T14:16:27.040Z,12.13
2022-09-11T14:19:01.108Z,12.00
2022-09-11T14:21:35.277Z,10.48
2022-09-11T14:24:07.132Z,11.43
2022-09-11T14:26:42.214Z,9.40
2022-09-11T14:29:24.763Z,8.98
2022-09-11T14:31:55.505Z,9.27
2022-09-11T14:34:27.708Z,8.57
2022-09-11T14:36:59.610Z,9.25
2022-09-11T14:39:35.090Z,10.02
2022-09-11T14:42:05.976Z,9.40
2022-09-11T14:44:36.035Z,10.35
2022-09-11T14:47:05.440Z,8.88
2022-09-11T14:49:33.432Z,7.78
2022-09-11T14:52:02.082Z,8.32
2022-09-11T14:54:31.926Z,9.57
2022-09-11T14:57:00.263Z,13.45
2022-09-11T14:59:29.354Z,9.57
2022-09-11T15:01:58.551Z,9.20
2022-09-11T15:04:29.517Z,11.13
2022-09-11T15:06:57.925Z,10.02
2022-09-11T15:09:26.122Z,12.90
2022-09-11T15:11:54.063Z,11.88
2022-09-11T15:14:52.008Z,10.75
2022-09-11T15:17:13.159Z,10.45
2022-09-11T15:19:45.672Z,13.73
2022-09-11T15:22:14.318Z,10.65
2022-09-11T15:24:42.583Z,9.55
2022-09-11T15:27:10.934Z,12.30
2022-09-11T15:29:39.716Z,10.18
2022-09-11T15:32:09.687Z,11.05
2022-09-11T15:34:39.209Z,9.93
2022-09-11T15:37:08.621Z,10.95
2022-09-11T15:39:36.542Z,10.23
2022-09-11T15:42:04.760Z,9.13
2022-09-11T15:44:35.545Z,10.45
2022-09-11T15:47:04.723Z,9.48
2022-09-11T15:49:32.594Z,11.05
2022-09-11T15:52:01.378Z,9.23
2022-09-11T15:54:30.961Z,9.32
2022-09-11T15:56:58.971Z,11.63
2022-09-11T15:59:26.914Z,11.65
2022-09-11T16:01:54.994Z,9.18
2022-09-11T16:04:27.954Z,10.98
2022-09-11T16:06:56.229Z,11.13
2022-09-11T16:09:26.861Z,10.60
2022-09-11T16:11:56.872Z,13.43
2022-09-11T16:14:27.145Z,11.95
2022-09-11T16:16:57.938Z,11.18
2022-09-11T16:19:28.970Z,11.63
2022-09-11T16:21:58.933Z,9.30
2022-09-11T16:24:28.906Z,11.55
2022-09-11T16:26:58.279Z,9.10
2022-09-11T16:29:44.010Z,11.23
2022-09-11T16:32:27.833Z,10.60
2022-09-11T16:34:56.839Z,12.10
2022-09-11T16:37:24.791Z,10.82
2022-09-11T16:39:52.754Z,9.32
2022-09-11T16:42:22.146Z,9.93
2022-09-11T16:44:50.263Z,10.13
2022-09-11T16:47:20.022Z,11.60
2022-09-11T16:50:06.335Z,12.20
2022-09-11T16:52:35.474Z,10.05
2022-09-11T16:55:03.971Z,10.20
2022-09-11T16:57:33.499Z,10.65
2022-09-11T17:00:01.914Z,9.07
2022-09-11T17:02:29.893Z,9.95
2022-09-11T17:04:57.883Z,12.65
2022-09-11T17:07:25.905Z,10.30
2022-09-11T17:09:54.734Z,12.73
2022-09-11T17:12:22.761Z,11.80
2022-09-11T17:14:52.177Z,14.43
2022-09-11T17:17:20.289Z,13.85
2022-09-11T17:19:50.947Z,11.13
2022-09-11T17:22:19.104Z,10.10
2022-09-11T17:24:47.085Z,13.50
2022-09-11T17:27:15.107Z,11.10
2022-09-11T17:29:44.695Z,12.35
2022-09-11T17:32:31.179Z,11.60
2022-09-11T17:34:59.797Z,9.27
2022-09-11T17:37:28.213Z,9.68
2022-09-11T17:39:57.799Z,13.10
2022-09-11T17:42:27.799Z,10.82
2022-09-11T17:44:56.315Z,9.90
2022-09-11T17:47:26.118Z,10.05
2022-09-11T17:49:54.125Z,9.50
2022-09-11T17:52:22.133Z,12.27
2022-09-11T17:54:50.487Z,10.82
2022-09-11T17:57:18.466Z,11.48
2022-09-11T17:59:48.872Z,13.48
2022-09-11T18:02:18.140Z,11.98
2022-09-11T18:04:48.468Z,11.65
2022-09-11T18:07:16.807Z,11.80
2022-09-11T18:09:45.025Z,15.60
2022-09-11T18:12:13.087Z,13.43
2022-09-11T18:14:42.953Z,13.35
2022-09-11T18:17:11.186Z,11.93
2022-09-11T18:19:39.217Z,12.13
2022-09-11T18:22:09.819Z,12.30
2022-09-11T18:24:39.789Z,13.05
2022-09-11T18:27:09.950Z,13.18
2022-09-11T18:29:39.962Z,14.50
2022-09-11T18:32:09.874Z,13.80
2022-09-11T18:34:38.339Z,11.55
2022-09-11T18:37:08.197Z,9.82
2022-09-11T18:39:36.132Z,12.40
2022-09-11T18:42:06.995Z,14.82
2022-09-11T18:44:34.985Z,11.52
2022-09-11T18:47:02.920Z,11.70
2022-09-11T18:49:30.851Z,11.57
2022-09-11T18:52:00.429Z,14.15
2022-09-11T18:54:31.082Z,10.90
2022-09-11T18:57:00.252Z,14.80
2022-09-11T18:59:28.580Z,12.07
2022-09-11T19:01:57.060Z,12.85
2022-09-11T19:04:25.981Z,9.63
2022-09-11T19:06:53.894Z,13.25
2022-09-11T19:09:21.792Z,14.80
2022-09-11T19:11:52.579Z,12.85
2022-09-11T19:14:21.011Z,10.95
2022-09-11T19:16:49.109Z,13.02
2022-09-11T19:19:17.019Z,12.50
2022-09-11T19:21:45.008Z,12.20
2022-09-11T19:24:13.445Z,15.38
2022-09-11T19:26:43.386Z,10.93
2022-09-11T19:29:15.657Z,12.35
2022-09-11T19:31:43.631Z,11.45
2022-09-11T19:34:12.788Z,12.48
2022-09-11T19:36:41.089Z,12.52
2022-09-11T19:39:09.454Z,13.00
2022-09-11T19:41:39.753Z,12.63
2022-09-11T19:44:11.990Z,14.25
2022-09-11T19:46:42.811Z,15.82
2022-09-11T19:49:11.396Z,16.13
2022-09-11T19:51:41.133Z,17.35
2022-09-11T19:54:11.673Z,14.27
2022-09-11T19:56:39.853Z,15.25
2022-09-11T19:59:09.050Z,16.80
2022-09-11T20:01:37.097Z,11.13
2022-09-11T20:04:06.670Z,15.00
2022-09-11T20:06:36.215Z,12.85
2022-09-11T20:09:30.895Z,13.77
2022-09-11T20:11:53.700Z,17.50
2022-09-11T20:14:21.739Z,14.70
2022-09-11T20:16:49.656Z,15.95
2022-09-11T20:19:20.448Z,14.95
2022-09-11T20:21:48.366Z,16.80
2022-09-11T20:24:17.049Z,14.35
2022-09-11T20:26:45.065Z,15.88
2022-09-11T20:29:15.769Z,13.48
2022-09-11T20:31:48.917Z,19.48
2022-09-11T20:34:19.488Z,15.57
2022-09-11T20:36:47.794Z,15.95
2022-09-11T20:39:16.553Z,17.75
2022-09-11T20:41:44.866Z,15.20
2022-09-11T20:44:13.127Z,20.15
2022-09-11T20:46:43.424Z,15.00
2022-09-11T20:49:12.191Z,15.73
2022-09-11T20:51:41.780Z,16.83
2022-09-11T20:54:10.527Z,16.00
2022-09-11T20:56:38.437Z,16.65
2022-09-11T20:59:06.383Z,15.88
2022-09-11T21:01:35.173Z,16.02
2022-09-11T21:04:05.027Z,18.92
2022-09-11T21:06:34.809Z,16.08
2022-09-11T21:09:07.556Z,15.32
2022-09-11T21:11:37.355Z,16.77
2022-09-11T21:14:05.852Z,14.25
2022-09-11T21:16:34.123Z,17.58
2022-09-11T21:19:02.895Z,15.73
2022-09-11T21:21:31.660Z,14.00
2022-09-11T21:24:01.788Z,15.98
2022-09-11T21:26:32.625Z,17.23
2022-09-11T21:29:02.619Z,15.23
2022-09-11T21:31:31.096Z,20.08
2022-09-11T21:33:59.440Z,17.60
2022-09-11T21:36:27.751Z,15.38
2022-09-11T21:38:55.984Z,20.65
2022-09-11T21:41:24.181Z,17.10
2022-09-11T21:43:53.406Z,16.67
2022-09-11T21:46:21.609Z,17.58
2022-09-11T21:48:49.484Z,16.80
2022-09-11T21:51:19.925Z,16.67
2022-09-11T21:53:49.419Z,18.95
2022-09-11T21:56:19.751Z,17.08
2022-09-11T21:58:47.733Z,15.77
2022-09-11T22:01:17.009Z,16.63
2022-09-11T22:03:45.350Z,15.27
2022-09-11T22:06:14.223Z,20.83
2022-09-11T22:08:43.226Z,20.85
2022-09-11T22:11:11.913Z,16.73
2022-09-11T22:13:41.050Z,18.75
2022-09-11T22:16:12.083Z,19.85
2022-09-11T22:18:41.986Z,17.02
2022-09-11T22:21:11.216Z,19.85
2022-09-11T22:23:39.446Z,19.52
2022-09-11T22:26:09.943Z,18.83
2022-09-11T22:28:38.568Z,20.10
2022-09-11T22:31:10.564Z,20.60
2022-09-11T22:33:41.177Z,22.42
2022-09-11T22:36:11.501Z,18.30
2022-09-11T22:38:39.683Z,18.63
2022-09-11T22:41:08.081Z,21.52
2022-09-11T22:43:36.417Z,22.50
2022-09-11T22:46:05.287Z,18.48
2022-09-11T22:48:33.835Z,18.52
2022-09-11T22:51:03.282Z,19.25
2022-09-11T22:53:31.318Z,20.20
2022-09-11T22:55:59.571Z,17.20
2022-09-11T22:58:30.495Z,18.58
2022-09-11T23:00:59.713Z,22.20
2022-09-11T23:03:28.046Z,20.40
2022-09-11T23:06:14.013Z,21.55
2022-09-11T23:08:45.567Z,19.92
2022-09-11T23:11:16.144Z,19.27
2022-09-11T23:13:45.648Z,22.75
2022-09-11T23:16:15.231Z,18.98
2022-09-11T23:18:44.027Z,19.00
2022-09-11T23:21:13.373Z,17.42
2022-09-11T23:23:44.791Z,17.50
2022-09-11T23:26:14.745Z,18.88
2022-09-11T23:28:43.028Z,20.17
2022-09-11T23:31:12.885Z,20.40
2022-09-11T23:33:41.358Z,21.33
2022-09-11T23:36:10.978Z,18.65
2022-09-11T23:38:39.357Z,18.42
2022-09-11T23:41:08.791Z,21.20
2022-09-11T23:43:36.773Z,20.10
2022-09-11T23:46:04.805Z,18.85
2022-09-11T23:48:32.849Z,18.23
2022-09-11T23:51:01.287Z,21.42
2022-09-11T23:53:29.580Z,20.55
2022-09-11T23:55:58.272Z,21.58
2022-09-11T23:58:27.726Z,19.95
